sensor_id;sensor_type;location;lat;lon;timestamp;pressure;altitude;pressure_sealevel;temperature;humidity
67457;BME280;54319;52.038;4.640;2022-07-18T00:02:04;102519.19;;;17.33;74.55
67457;BME280;54319;52.038;4.640;2022-07-18T00:04:32;102516.59;;;17.29;74.38
67457;BME280;54319;52.038;4.640;2022-07-18T00:06:58;102520.19;;;17.25;74.16
67457;BME280;54319;52.038;4.640;2022-07-18T00:09:26;102522.84;;;17.23;74.65
67457;BME280;54319;52.038;4.640;2022-07-18T00:11:53;102521.09;;;17.21;74.49
67457;BME280;54319;52.038;4.640;2022-07-18T00:14:20;102516.72;;;17.20;74.57
67457;BME280;54319;52.038;4.640;2022-07-18T00:16:48;102514.09;;;17.18;74.81
67457;BME280;54319;52.038;4.640;2022-07-18T00:19:15;102512.34;;;17.17;74.73
67457;BME280;54319;52.038;4.640;2022-07-18T00:21:44;102515.91;;;17.13;75.30
67457;BME280;54319;52.038;4.640;2022-07-18T00:24:10;102511.56;;;17.09;75.05
67457;BME280;54319;52.038;4.640;2022-07-18T00:26:37;102512.47;;;17.05;75.38
67457;BME280;54319;52.038;4.640;2022-07-18T00:29:04;102501.88;;;17.05;75.24
67457;BME280;54319;52.038;4.640;2022-07-18T00:31:32;102496.59;;;17.03;75.39
67457;BME280;54319;52.038;4.640;2022-07-18T00:33:59;102495.72;;;17.03;74.64
67457;BME280;54319;52.038;4.640;2022-07-18T00:36:26;102495.72;;;17.03;74.17
67457;BME280;54319;52.038;4.640;2022-07-18T00:38:55;102489.56;;;16.99;73.21
67457;BME280;54319;52.038;4.640;2022-07-18T00:41:22;102495.78;;;16.98;72.96
67457;BME280;54319;52.038;4.640;2022-07-18T00:43:49;102490.53;;;16.95;72.44
67457;BME280;54319;52.038;4.640;2022-07-18T00:46:20;102494.97;;;16.91;71.64
67457;BME280;54319;52.038;4.640;2022-07-18T00:48:47;102491.47;;;16.88;71.40
67457;BME280;54319;52.038;4.640;2022-07-18T00:51:15;102496.81;;;16.83;71.70
67457;BME280;54319;52.038;4.640;2022-07-18T00:53:42;102499.50;;;16.79;71.08
67457;BME280;54319;52.038;4.640;2022-07-18T00:56:11;102496.03;;;16.74;71.67
67457;BME280;54319;52.038;4.640;2022-07-18T00:58:38;102492.53;;;16.68;71.55
67457;BME280;54319;52.038;4.640;2022-07-18T01:01:05;102488.19;;;16.63;71.67
67457;BME280;54319;52.038;4.640;2022-07-18T01:03:46;102485.59;;;16.58;71.96
67457;BME280;54319;52.038;4.640;2022-07-18T01:06:13;102495.34;;;16.53;71.60
67457;BME280;54319;52.038;4.640;2022-07-18T01:08:42;102492.72;;;16.50;71.51
67457;BME280;54319;52.038;4.640;2022-07-18T01:11:10;102494.50;;;16.48;72.03
67457;BME280;54319;52.038;4.640;2022-07-18T01:13:37;102497.16;;;16.48;72.14
67457;BME280;54319;52.038;4.640;2022-07-18T01:16:04;102490.13;;;16.45;71.80
67457;BME280;54319;52.038;4.640;2022-07-18T01:18:31;102477.72;;;16.50;70.98
67457;BME280;54319;52.038;4.640;2022-07-18T01:21:00;102481.19;;;16.57;69.48
67457;BME280;54319;52.038;4.640;2022-07-18T01:23:26;102489.13;;;16.60;69.24
67457;BME280;54319;52.038;4.640;2022-07-18T01:25:54;102485.56;;;16.60;68.48
67457;BME280;54319;52.038;4.640;2022-07-18T01:28:20;102477.66;;;16.57;68.61
67457;BME280;54319;52.038;4.640;2022-07-18T01:30:47;102487.38;;;16.56;69.13
67457;BME280;54319;52.038;4.640;2022-07-18T01:33:14;102477.66;;;16.57;69.01
67457;BME280;54319;52.038;4.640;2022-07-18T01:35:42;102479.41;;;16.59;68.59
67457;BME280;54319;52.038;4.640;2022-07-18T01:38:10;102485.59;;;16.58;68.43
67457;BME280;54319;52.038;4.640;2022-07-18T01:40:38;102487.38;;;16.56;68.34
67457;BME280;54319;52.038;4.640;2022-07-18T01:43:05;102484.75;;;16.53;68.63
67457;BME280;54319;52.038;4.640;2022-07-18T01:45:32;102477.72;;;16.50;68.67
67457;BME280;54319;52.038;4.640;2022-07-18T01:47:59;102481.28;;;16.48;68.99
67457;BME280;54319;52.038;4.640;2022-07-18T01:50:26;102465.41;;;16.48;68.63
67457;BME280;54319;52.038;4.640;2022-07-18T01:52:53;102472.47;;;16.47;68.05
67457;BME280;54319;52.038;4.640;2022-07-18T01:55:21;102469.88;;;16.43;68.18
67457;BME280;54319;52.038;4.640;2022-07-18T01:57:48;102471.66;;;16.41;68.47
67457;BME280;54319;52.038;4.640;2022-07-18T02:00:15;102463.78;;;16.36;68.91
67457;BME280;54319;52.038;4.640;2022-07-18T02:02:42;102458.50;;;16.33;69.44
67457;BME280;54319;52.038;4.640;2022-07-18T02:05:09;102462.06;;;16.29;70.03
67457;BME280;54319;52.038;4.640;2022-07-18T02:07:37;102463.00;;;16.25;69.55
67457;BME280;54319;52.038;4.640;2022-07-18T02:10:06;102463.03;;;16.20;69.43
67457;BME280;54319;52.038;4.640;2022-07-18T02:12:36;102462.19;;;16.15;68.78
67457;BME280;54319;52.038;4.640;2022-07-18T02:15:04;102459.59;;;16.11;69.00
67457;BME280;54319;52.038;4.640;2022-07-18T02:17:33;102457.84;;;16.08;69.32
67457;BME280;54319;52.038;4.640;2022-07-18T02:20:00;102450.81;;;16.04;69.99
67457;BME280;54319;52.038;4.640;2022-07-18T02:22:27;102451.72;;;16.03;69.91
67457;BME280;54319;52.038;4.640;2022-07-18T02:24:54;102447.31;;;16.00;70.57
67457;BME280;54319;52.038;4.640;2022-07-18T02:27:21;102442.06;;;15.97;70.57
67457;BME280;54319;52.038;4.640;2022-07-18T02:29:50;102440.34;;;15.95;70.37
67457;BME280;54319;52.038;4.640;2022-07-18T02:32:17;102442.13;;;15.91;70.64
67457;BME280;54319;52.038;4.640;2022-07-18T02:34:44;102440.38;;;15.87;70.57
67457;BME280;54319;52.038;4.640;2022-07-18T02:37:11;102443.06;;;15.84;70.95
67457;BME280;54319;52.038;4.640;2022-07-18T02:39:38;102430.75;;;15.81;70.78
67457;BME280;54319;52.038;4.640;2022-07-18T02:42:05;102436.91;;;15.82;70.95
67457;BME280;54319;52.038;4.640;2022-07-18T02:44:33;102428.09;;;15.81;70.74
67457;BME280;54319;52.038;4.640;2022-07-18T02:47:01;102432.47;;;15.82;70.38
67457;BME280;54319;52.038;4.640;2022-07-18T02:49:29;102423.66;;;15.86;69.69
67457;BME280;54319;52.038;4.640;2022-07-18T02:51:59;102421.88;;;15.90;69.71
67457;BME280;54319;52.038;4.640;2022-07-18T02:54:27;102424.47;;;15.95;69.08
67457;BME280;54319;52.038;4.640;2022-07-18T02:56:54;102431.44;;;16.00;68.67
67457;BME280;54319;52.038;4.640;2022-07-18T02:59:21;102423.53;;;16.02;68.85
67457;BME280;54319;52.038;4.640;2022-07-18T03:01:48;102421.69;;;16.07;68.50
67457;BME280;54319;52.038;4.640;2022-07-18T03:04:16;102423.41;;;16.14;67.67
67457;BME280;54319;52.038;4.640;2022-07-18T03:06:44;102414.56;;;16.18;67.23
67457;BME280;54319;52.038;4.640;2022-07-18T03:09:11;102414.47;;;16.26;66.94
67457;BME280;54319;52.038;4.640;2022-07-18T03:11:39;102420.63;;;16.26;67.18
67457;BME280;54319;52.038;4.640;2022-07-18T03:14:06;102415.41;;;16.25;67.42
67457;BME280;54319;52.038;4.640;2022-07-18T03:16:34;102417.19;;;16.20;67.50
67457;BME280;54319;52.038;4.640;2022-07-18T03:19:01;102405.78;;;16.16;68.50
67457;BME280;54319;52.038;4.640;2022-07-18T03:21:29;102402.31;;;16.08;69.25
67457;BME280;54319;52.038;4.640;2022-07-18T03:23:56;102404.16;;;15.98;69.73
67457;BME280;54319;52.038;4.640;2022-07-18T03:26:23;102404.22;;;15.91;69.54
67457;BME280;54319;52.038;4.640;2022-07-18T03:28:50;102399.03;;;15.81;70.17
67457;BME280;54319;52.038;4.640;2022-07-18T03:31:17;102392.06;;;15.74;70.57
67457;BME280;54319;52.038;4.640;2022-07-18T03:33:44;102389.41;;;15.66;71.12
67457;BME280;54319;52.038;4.640;2022-07-18T03:36:12;102386.81;;;15.62;71.64
67457;BME280;54319;52.038;4.640;2022-07-18T03:38:40;102392.13;;;15.56;71.71
67457;BME280;54319;52.038;4.640;2022-07-18T03:41:08;102387.75;;;15.52;71.48
67457;BME280;54319;52.038;4.640;2022-07-18T03:43:35;102385.16;;;15.48;71.51
67457;BME280;54319;52.038;4.640;2022-07-18T03:46:03;102386.94;;;15.45;72.10
67457;BME280;54319;52.038;4.640;2022-07-18T03:48:29;102382.53;;;15.42;72.25
67457;BME280;54319;52.038;4.640;2022-07-18T03:50:57;102385.16;;;15.48;70.99
67457;BME280;54319;52.038;4.640;2022-07-18T03:53:24;102385.94;;;15.60;69.66
67457;BME280;54319;52.038;4.640;2022-07-18T03:55:53;102384.13;;;15.71;68.60
67457;BME280;54319;52.038;4.640;2022-07-18T03:58:19;102381.41;;;15.83;67.75
67457;BME280;54319;52.038;4.640;2022-07-18T04:00:47;102369.81;;;15.97;66.71
67457;BME280;54319;52.038;4.640;2022-07-18T04:03:14;102374.19;;;15.99;66.64
67457;BME280;54319;52.038;4.640;2022-07-18T04:05:41;102373.28;;;16.02;67.19
67457;BME280;54319;52.038;4.640;2022-07-18T04:08:07;102371.50;;;16.02;66.84
67457;BME280;54319;52.038;4.640;2022-07-18T04:10:34;102377.66;;;16.06;66.12
67457;BME280;54319;52.038;4.640;2022-07-18T04:13:07;102370.53;;;16.13;65.87
67457;BME280;54319;52.038;4.640;2022-07-18T04:15:35;102373.19;;;16.11;66.00
67457;BME280;54319;52.038;4.640;2022-07-18T04:18:02;102372.31;;;16.09;66.05
67457;BME280;54319;52.038;4.640;2022-07-18T04:20:31;102366.13;;;16.15;65.66
67457;BME280;54319;52.038;4.640;2022-07-18T04:22:58;102370.47;;;16.20;65.26
67457;BME280;54319;52.038;4.640;2022-07-18T04:25:27;102377.50;;;16.23;65.11
67457;BME280;54319;52.038;4.640;2022-07-18T04:27:55;102377.50;;;16.23;65.33
67457;BME280;54319;52.038;4.640;2022-07-18T04:30:25;102373.94;;;16.25;65.29
67457;BME280;54319;52.038;4.640;2022-07-18T04:32:53;102365.16;;;16.23;65.83
67457;BME280;54319;52.038;4.640;2022-07-18T04:35:21;102364.28;;;16.20;66.05
67457;BME280;54319;52.038;4.640;2022-07-18T04:37:50;102359.91;;;16.17;66.24
67457;BME280;54319;52.038;4.640;2022-07-18T04:40:18;102361.63;;;16.23;65.74
67457;BME280;54319;52.038;4.640;2022-07-18T04:42:45;102361.59;;;16.26;65.18
67457;BME280;54319;52.038;4.640;2022-07-18T04:45:13;102355.34;;;16.33;65.07
67457;BME280;54319;52.038;4.640;2022-07-18T04:47:42;102364.97;;;16.39;65.14
67457;BME280;54319;52.038;4.640;2022-07-18T04:50:09;102371.09;;;16.44;65.08
67457;BME280;54319;52.038;4.640;2022-07-18T04:52:37;102373.66;;;16.52;64.63
67457;BME280;54319;52.038;4.640;2022-07-18T04:55:06;102372.69;;;16.57;64.89
67457;BME280;54319;52.038;4.640;2022-07-18T04:57:33;102374.41;;;16.61;64.63
67457;BME280;54319;52.038;4.640;2022-07-18T05:00:00;102371.81;;;16.57;65.89
67457;BME280;54319;52.038;4.640;2022-07-18T05:02:27;102383.28;;;16.57;64.93
67457;BME280;54319;52.038;4.640;2022-07-18T05:04:55;102374.41;;;16.60;65.15
67457;BME280;54319;52.038;4.640;2022-07-18T05:07:22;102372.59;;;16.66;64.91
67457;BME280;54319;52.038;4.640;2022-07-18T05:09:49;102376.09;;;16.68;64.58
67457;BME280;54319;52.038;4.640;2022-07-18T05:12:15;102379.56;;;16.74;64.58
67457;BME280;54319;52.038;4.640;2022-07-18T05:14:45;102378.66;;;16.75;64.60
67457;BME280;54319;52.038;4.640;2022-07-18T05:17:11;102375.13;;;16.76;64.57
67457;BME280;54319;52.038;4.640;2022-07-18T05:19:39;102382.19;;;16.80;64.76
67457;BME280;54319;52.038;4.640;2022-07-18T05:22:07;102370.66;;;16.82;64.22
67457;BME280;54319;52.038;4.640;2022-07-18T05:24:34;102372.44;;;16.82;64.47
67457;BME280;54319;52.038;4.640;2022-07-18T05:27:00;102370.59;;;16.87;63.96
67457;BME280;54319;52.038;4.640;2022-07-18T05:29:27;102366.97;;;16.96;63.94
67457;BME280;54319;52.038;4.640;2022-07-18T05:31:54;102368.63;;;17.04;63.25
67457;BME280;54319;52.038;4.640;2022-07-18T05:34:21;102377.44;;;17.03;63.87
67457;BME280;54319;52.038;4.640;2022-07-18T05:36:48;102372.13;;;17.06;63.70
67457;BME280;54319;52.038;4.640;2022-07-18T05:39:16;102372.91;;;17.11;63.41
67457;BME280;54319;52.038;4.640;2022-07-18T05:41:43;102364.09;;;17.13;63.39
67457;BME280;54319;52.038;4.640;2022-07-18T05:44:10;102359.63;;;17.15;64.14
67457;BME280;54319;52.038;4.640;2022-07-18T05:46:37;102365.69;;;17.21;63.61
67457;BME280;54319;52.038;4.640;2022-07-18T05:49:04;102360.25;;;17.32;62.57
67457;BME280;54319;52.038;4.640;2022-07-18T05:51:31;102354.78;;;17.43;61.56
67457;BME280;54319;52.038;4.640;2022-07-18T05:53:58;102359.91;;;17.53;61.04
67457;BME280;54319;52.038;4.640;2022-07-18T05:56:27;102348.28;;;17.64;60.64
67457;BME280;54319;52.038;4.640;2022-07-18T05:58:53;102347.34;;;17.66;61.04
67457;BME280;54319;52.038;4.640;2022-07-18T06:01:20;102341.94;;;17.74;61.03
67457;BME280;54319;52.038;4.640;2022-07-18T06:03:47;102339.13;;;17.80;61.66
67457;BME280;54319;52.038;4.640;2022-07-18T06:06:14;102337.34;;;17.85;61.65
67457;BME280;54319;52.038;4.640;2022-07-18T06:08:41;102343.50;;;17.87;61.70
67457;BME280;54319;52.038;4.640;2022-07-18T06:11:08;102346.84;;;17.97;61.14
67457;BME280;54319;52.038;4.640;2022-07-18T06:13:39;102343.13;;;18.07;60.61
67457;BME280;54319;52.038;4.640;2022-07-18T06:16:08;102339.34;;;18.21;60.34
67457;BME280;54319;52.038;4.640;2022-07-18T06:18:34;102345.34;;;18.29;60.39
67457;BME280;54319;52.038;4.640;2022-07-18T06:21:01;102340.63;;;18.45;59.67
67457;BME280;54319;52.038;4.640;2022-07-18T06:23:28;102347.56;;;18.52;60.32
67457;BME280;54319;52.038;4.640;2022-07-18T06:25:55;102343.91;;;18.58;60.75
67457;BME280;54319;52.038;4.640;2022-07-18T06:28:22;102345.50;;;18.66;60.27
67457;BME280;54319;52.038;4.640;2022-07-18T06:30:51;102352.41;;;18.73;60.42
67457;BME280;54319;52.038;4.640;2022-07-18T06:33:18;102349.59;;;18.83;59.67
67457;BME280;54319;52.038;4.640;2022-07-18T06:35:45;102341.47;;;18.90;59.85
67457;BME280;54319;52.038;4.640;2022-07-18T06:38:12;102350.19;;;18.95;59.75
67457;BME280;54319;52.038;4.640;2022-07-18T06:40:40;102356.31;;;18.99;59.55
67457;BME280;54319;52.038;4.640;2022-07-18T06:43:06;102342.22;;;18.97;59.73
67457;BME280;54319;52.038;4.640;2022-07-18T06:45:34;102348.28;;;19.02;59.47
67457;BME280;54319;52.038;4.640;2022-07-18T06:48:02;102342.00;;;19.06;59.25
67457;BME280;54319;52.038;4.640;2022-07-18T06:50:29;102348.91;;;19.13;59.54
67457;BME280;54319;52.038;4.640;2022-07-18T06:52:56;102354.06;;;19.21;60.00
67457;BME280;54319;52.038;4.640;2022-07-18T06:55:24;102347.56;;;19.33;59.14
67457;BME280;54319;52.038;4.640;2022-07-18T06:57:51;102344.50;;;19.50;57.87
67457;BME280;54319;52.038;4.640;2022-07-18T07:00:18;102345.06;;;19.63;57.91
67457;BME280;54319;52.038;4.640;2022-07-18T07:02:45;102339.38;;;19.78;57.15
67457;BME280;54319;52.038;4.640;2022-07-18T07:05:15;102329.28;;;19.91;57.26
67457;BME280;54319;52.038;4.640;2022-07-18T07:07:42;102326.34;;;20.02;57.44
67457;BME280;54319;52.038;4.640;2022-07-18T07:10:10;102336.66;;;20.14;56.24
67457;BME280;54319;52.038;4.640;2022-07-18T07:12:38;102335.41;;;20.27;56.40
67457;BME280;54319;52.038;4.640;2022-07-18T07:15:07;102331.47;;;20.40;56.21
67457;BME280;54319;52.038;4.640;2022-07-18T07:17:34;102329.38;;;20.52;55.78
67457;BME280;54319;52.038;4.640;2022-07-18T07:20:02;102336.84;;;20.70;55.12
67457;BME280;54319;52.038;4.640;2022-07-18T07:22:30;102329.56;;;21.05;55.17
67457;BME280;54319;52.038;4.640;2022-07-18T07:24:57;102322.53;;;21.59;51.80
67457;BME280;54319;52.038;4.640;2022-07-18T07:27:24;102328.28;;;22.23;50.59
67457;BME280;54319;52.038;4.640;2022-07-18T07:29:51;102323.44;;;23.04;47.76
67457;BME280;54319;52.038;4.640;2022-07-18T07:32:18;102323.63;;;23.64;47.66
67457;BME280;54319;52.038;4.640;2022-07-18T07:34:45;102327.41;;;24.21;45.62
67457;BME280;54319;52.038;4.640;2022-07-18T07:37:12;102327.38;;;24.02;45.02
67457;BME280;54319;52.038;4.640;2022-07-18T07:39:40;102328.41;;;24.19;45.58
67457;BME280;54319;52.038;4.640;2022-07-18T07:42:07;102329.56;;;24.13;44.38
67457;BME280;54319;52.038;4.640;2022-07-18T07:44:34;102323.78;;;24.22;45.63
67457;BME280;54319;52.038;4.640;2022-07-18T07:47:01;102324.94;;;24.56;45.65
67457;BME280;54319;52.038;4.640;2022-07-18T07:49:28;102328.28;;;24.99;44.80
67457;BME280;54319;52.038;4.640;2022-07-18T07:51:59;102338.41;;;25.48;44.02
67457;BME280;54319;52.038;4.640;2022-07-18T07:54:27;102331.38;;;26.48;42.04
67457;BME280;54319;52.038;4.640;2022-07-18T07:56:55;102332.72;;;27.05;40.50
67457;BME280;54319;52.038;4.640;2022-07-18T07:59:22;102338.38;;;27.62;38.79
67457;BME280;54319;52.038;4.640;2022-07-18T08:01:49;102330.22;;;27.02;40.20
67457;BME280;54319;52.038;4.640;2022-07-18T08:04:16;102327.09;;;26.93;40.32
67457;BME280;54319;52.038;4.640;2022-07-18T08:06:42;102332.38;;;26.63;40.28
67457;BME280;54319;52.038;4.640;2022-07-18T08:09:09;102322.25;;;26.68;40.38
67457;BME280;54319;52.038;4.640;2022-07-18T08:11:37;102333.44;;;26.92;40.60
67457;BME280;54319;52.038;4.640;2022-07-18T08:14:05;102325.19;;;27.27;39.88
67457;BME280;54319;52.038;4.640;2022-07-18T08:16:32;102322.59;;;27.56;38.63
67457;BME280;54319;52.038;4.640;2022-07-18T08:18:59;102328.63;;;27.45;37.35
67457;BME280;54319;52.038;4.640;2022-07-18T08:21:26;102319.94;;;27.40;39.10
67457;BME280;54319;52.038;4.640;2022-07-18T08:23:52;102320.84;;;27.25;38.35
67457;BME280;54319;52.038;4.640;2022-07-18T08:26:19;102316.75;;;27.64;38.39
67457;BME280;54319;52.038;4.640;2022-07-18T08:28:47;102309.88;;;27.88;37.96
67457;BME280;54319;52.038;4.640;2022-07-18T08:31:16;102316.16;;;28.32;35.79
67457;BME280;54319;52.038;4.640;2022-07-18T08:33:44;102308.94;;;29.02;35.23
67457;BME280;54319;52.038;4.640;2022-07-18T08:36:11;102318.38;;;29.37;34.29
67457;BME280;54319;52.038;4.640;2022-07-18T08:38:38;102317.13;;;29.68;34.31
67457;BME280;54319;52.038;4.640;2022-07-18T08:41:05;102316.09;;;29.83;33.07
67457;BME280;54319;52.038;4.640;2022-07-18T08:43:32;102316.75;;;29.74;34.95
67457;BME280;54319;52.038;4.640;2022-07-18T08:46:02;102312.91;;;29.51;34.45
67457;BME280;54319;52.038;4.640;2022-07-18T08:48:31;102305.91;;;29.21;33.62
67457;BME280;54319;52.038;4.640;2022-07-18T08:50:59;102316.31;;;28.86;34.22
67457;BME280;54319;52.038;4.640;2022-07-18T08:53:27;102318.78;;;28.62;35.49
67457;BME280;54319;52.038;4.640;2022-07-18T08:55:55;102315.09;;;28.77;35.63
67457;BME280;54319;52.038;4.640;2022-07-18T08:58:22;102315.09;;;27.91;35.41
67457;BME280;54319;52.038;4.640;2022-07-18T09:00:49;102313.88;;;28.11;34.79
67457;BME280;54319;52.038;4.640;2022-07-18T09:03:15;102317.03;;;27.89;35.24
67457;BME280;54319;52.038;4.640;2022-07-18T09:05:44;102313.97;;;27.95;36.61
67457;BME280;54319;52.038;4.640;2022-07-18T09:08:12;102313.81;;;27.83;36.29
67457;BME280;54319;52.038;4.640;2022-07-18T09:10:47;102318.84;;;27.89;35.45
67457;BME280;54319;52.038;4.640;2022-07-18T09:13:15;102318.47;;;28.09;35.71
67457;BME280;54319;52.038;4.640;2022-07-18T09:15:59;102315.41;;;28.15;35.34
67457;BME280;54319;52.038;4.640;2022-07-18T09:18:27;102315.50;;;28.00;34.19
67457;BME280;54319;52.038;4.640;2022-07-18T09:21:02;102312.72;;;28.15;35.03
67457;BME280;54319;52.038;4.640;2022-07-18T09:23:30;102309.31;;;28.40;34.41
67457;BME280;54319;52.038;4.640;2022-07-18T09:25:57;102304.53;;;28.60;33.98
67457;BME280;54319;52.038;4.640;2022-07-18T09:28:25;102303.56;;;28.47;33.40
67457;BME280;54319;52.038;4.640;2022-07-18T09:30:53;102310.59;;;28.49;33.44
67457;BME280;54319;52.038;4.640;2022-07-18T09:33:19;102305.91;;;28.80;33.10
67457;BME280;54319;52.038;4.640;2022-07-18T09:35:49;102302.38;;;28.79;33.72
67457;BME280;54319;52.038;4.640;2022-07-18T09:38:18;102301.03;;;28.99;33.40
67457;BME280;54319;52.038;4.640;2022-07-18T09:40:47;102294.19;;;28.81;31.32
67457;BME280;54319;52.038;4.640;2022-07-18T09:43:16;102299.75;;;28.78;31.67
67457;BME280;54319;52.038;4.640;2022-07-18T09:45:45;102291.88;;;29.02;32.25
67457;BME280;54319;52.038;4.640;2022-07-18T09:48:15;102289.34;;;29.13;32.21
67457;BME280;54319;52.038;4.640;2022-07-18T09:50:49;102291.47;;;29.23;30.79
67457;BME280;54319;52.038;4.640;2022-07-18T09:53:21;102288.81;;;29.48;29.47
67457;BME280;54319;52.038;4.640;2022-07-18T09:55:50;102291.66;;;29.72;30.57
67457;BME280;54319;52.038;4.640;2022-07-18T09:58:19;102297.75;;;29.89;30.14
67457;BME280;54319;52.038;4.640;2022-07-18T10:00:47;102291.47;;;30.01;29.71
67457;BME280;54319;52.038;4.640;2022-07-18T10:03:15;102288.41;;;30.06;27.93
67457;BME280;54319;52.038;4.640;2022-07-18T10:05:45;102294.91;;;30.16;28.99
67457;BME280;54319;52.038;4.640;2022-07-18T10:08:13;102289.50;;;30.03;29.28
67457;BME280;54319;52.038;4.640;2022-07-18T10:10:45;102286.81;;;30.16;28.35
67457;BME280;54319;52.038;4.640;2022-07-18T10:13:12;102286.81;;;30.16;28.70
67457;BME280;54319;52.038;4.640;2022-07-18T10:15:41;102288.72;;;30.27;26.58
67457;BME280;54319;52.038;4.640;2022-07-18T10:18:10;102286.25;;;30.36;27.31
67457;BME280;54319;52.038;4.640;2022-07-18T10:20:39;102287.66;;;30.42;28.50
67457;BME280;54319;52.038;4.640;2022-07-18T10:23:08;102289.00;;;30.60;29.09
67457;BME280;54319;52.038;4.640;2022-07-18T10:25:37;102291.16;;;30.68;29.82
67457;BME280;54319;52.038;4.640;2022-07-18T10:28:08;102293.00;;;30.68;28.92
67457;BME280;54319;52.038;4.640;2022-07-18T10:30:39;102287.50;;;30.93;27.88
67457;BME280;54319;52.038;4.640;2022-07-18T10:33:36;102295.63;;;30.80;26.99
67457;BME280;54319;52.038;4.640;2022-07-18T10:36:05;102281.50;;;30.77;27.54
67457;BME280;54319;52.038;4.640;2022-07-18T10:38:33;102293.75;;;30.70;28.00
67457;BME280;54319;52.038;4.640;2022-07-18T10:41:05;102289.59;;;30.77;27.93
67457;BME280;54319;52.038;4.640;2022-07-18T10:43:42;102288.31;;;31.07;27.77
67457;BME280;54319;52.038;4.640;2022-07-18T10:46:11;102281.06;;;31.07;27.41
67457;BME280;54319;52.038;4.640;2022-07-18T10:48:52;102284.91;;;31.16;27.40
67457;BME280;54319;52.038;4.640;2022-07-18T10:51:28;102279.13;;;31.09;27.34
67457;BME280;54319;52.038;4.640;2022-07-18T10:53:56;102283.59;;;30.97;26.64
67457;BME280;54319;52.038;4.640;2022-07-18T10:59:26;102276.47;;;31.32;26.94
67457;BME280;54319;52.038;4.640;2022-07-18T11:01:55;102280.78;;;31.34;27.93
67457;BME280;54319;52.038;4.640;2022-07-18T11:04:23;102272.03;;;31.31;28.29
67457;BME280;54319;52.038;4.640;2022-07-18T11:06:54;102274.34;;;31.24;27.08
67457;BME280;54319;52.038;4.640;2022-07-18T11:09:29;102277.19;;;31.47;26.09
67457;BME280;54319;52.038;4.640;2022-07-18T11:12:25;102270.19;;;31.66;25.75
67457;BME280;54319;52.038;4.640;2022-07-18T11:15:09;102273.00;;;31.54;25.10
67457;BME280;54319;52.038;4.640;2022-07-18T11:18:05;102274.16;;;31.74;23.89
67457;BME280;54319;52.038;4.640;2022-07-18T11:20:40;102270.50;;;31.97;25.27
67457;BME280;54319;52.038;4.640;2022-07-18T11:23:16;102267.16;;;32.05;26.23
67457;BME280;54319;52.038;4.640;2022-07-18T11:25:44;102263.44;;;32.40;25.95
67457;BME280;54319;52.038;4.640;2022-07-18T11:28:12;102278.13;;;32.37;26.04
67457;BME280;54319;52.038;4.640;2022-07-18T11:30:42;102255.47;;;32.04;25.80
67457;BME280;54319;52.038;4.640;2022-07-18T11:33:23;102264.59;;;32.26;26.32
67457;BME280;54319;52.038;4.640;2022-07-18T11:35:51;102256.31;;;32.39;26.13
67457;BME280;54319;52.038;4.640;2022-07-18T11:38:17;102256.41;;;32.60;25.05
67457;BME280;54319;52.038;4.640;2022-07-18T11:40:51;102252.53;;;32.74;24.99
67457;BME280;54319;52.038;4.640;2022-07-18T11:43:22;102255.09;;;32.86;25.44
67457;BME280;54319;52.038;4.640;2022-07-18T11:46:03;102251.25;;;32.89;25.18
67457;BME280;54319;52.038;4.640;2022-07-18T11:48:30;102250.88;;;32.61;25.09
67457;BME280;54319;52.038;4.640;2022-07-18T11:50:59;102254.53;;;32.72;25.13
67457;BME280;54319;52.038;4.640;2022-07-18T11:53:26;102245.31;;;32.63;24.63
67457;BME280;54319;52.038;4.640;2022-07-18T11:55:54;102242.63;;;32.63;25.77
67457;BME280;54319;52.038;4.640;2022-07-18T11:58:21;102246.13;;;32.75;26.22
67457;BME280;54319;52.038;4.640;2022-07-18T12:00:48;102246.16;;;32.96;24.68
67457;BME280;54319;52.038;4.640;2022-07-18T12:03:18;102245.31;;;32.63;23.34
67457;BME280;54319;52.038;4.640;2022-07-18T12:05:47;102238.28;;;32.49;24.27
67457;BME280;54319;52.038;4.640;2022-07-18T12:08:28;102239.91;;;32.63;24.06
67457;BME280;54319;52.038;4.640;2022-07-18T12:11:06;102233.84;;;32.59;24.64
67457;BME280;54319;52.038;4.640;2022-07-18T12:13:47;102235.69;;;33.02;22.98
67457;BME280;54319;52.038;4.640;2022-07-18T12:16:28;102242.09;;;33.01;22.89
67457;BME280;54319;52.038;4.640;2022-07-18T12:18:58;102228.16;;;32.62;24.46
67457;BME280;54319;52.038;4.640;2022-07-18T12:21:45;102234.13;;;32.22;24.62
67457;BME280;54319;52.038;4.640;2022-07-18T12:24:26;102229.56;;;32.57;24.82
67457;BME280;54319;52.038;4.640;2022-07-18T12:27:15;102223.59;;;32.95;24.15
67457;BME280;54319;52.038;4.640;2022-07-18T12:30:04;102224.44;;;33.07;24.82
67457;BME280;54319;52.038;4.640;2022-07-18T12:32:44;102233.00;;;33.23;23.57
67457;BME280;54319;52.038;4.640;2022-07-18T12:35:15;102233.00;;;33.44;23.25
67457;BME280;54319;52.038;4.640;2022-07-18T12:37:51;102224.84;;;32.91;22.89
67457;BME280;54319;52.038;4.640;2022-07-18T12:40:20;102227.38;;;32.83;22.31
67457;BME280;54319;52.038;4.640;2022-07-18T12:42:48;102218.44;;;32.92;23.31
67457;BME280;54319;52.038;4.640;2022-07-18T12:45:16;102217.38;;;33.04;23.08
67457;BME280;54319;52.038;4.640;2022-07-18T12:47:42;102220.16;;;33.46;22.09
67457;BME280;54319;52.038;4.640;2022-07-18T12:50:09;102215.16;;;33.52;22.34
67457;BME280;54319;52.038;4.640;2022-07-18T12:52:37;102212.25;;;33.64;22.36
67457;BME280;54319;52.038;4.640;2022-07-18T12:55:05;102208.81;;;34.03;21.74
67457;BME280;54319;52.038;4.640;2022-07-18T12:57:32;102203.78;;;33.88;22.39
67457;BME280;54319;52.038;4.640;2022-07-18T12:59:59;102197.06;;;34.23;21.17
67457;BME280;54319;52.038;4.640;2022-07-18T13:02:26;102206.22;;;33.91;18.84